Time;durP1;ratioP1;P1;durP2;ratioP2;P2;SDS_P1;SDS_P2;PMS_P1;PMS_P2;Temp;Humidity;BMP_temperature;BMP_pressure;BME280_temperature;BME280_humidity;BME280_pressure;Samples;Min_cycle;Max_cycle;Signal;HPM_P1;HPM_P2
2022/04/25 00:01:22;;;;;;;11.90;7.93;;;8.10;99.90;;;;;;5040852;28;20045;-35
2022/04/25 00:03:48;;;;;;;15.47;7.90;;;8.10;99.90;;;;;;5024865;28;20052;-35
2022/04/25 00:06:14;;;;;;;16.50;8.60;;;8.20;99.90;;;;;;5018030;28;20079;-35
2022/04/25 00:08:39;;;;;;;15.20;8.23;;;8.10;99.90;;;;;;5020951;28;20072;-35
2022/04/25 00:11:05;;;;;;;16.10;8.07;;;8.00;99.90;;;;;;5026955;28;20481;-35
2022/04/25 00:13:31;;;;;;;18.97;8.67;;;8.10;99.90;;;;;;5026001;28;20051;-35
2022/04/25 00:15:57;;;;;;;17.00;8.47;;;8.00;99.90;;;;;;5027330;28;20041;-35
2022/04/25 00:18:23;;;;;;;16.13;8.80;;;8.00;99.90;;;;;;5013042;28;20590;-35
2022/04/25 00:20:50;;;;;;;13.80;8.53;;;8.00;99.90;;;;;;5026722;28;20064;-35
2022/04/25 00:23:16;;;;;;;15.33;8.53;;;8.00;99.90;;;;;;5025566;28;20504;-35
2022/04/25 00:25:41;;;;;;;17.13;9.57;;;8.00;99.90;;;;;;5025031;28;20128;-34
2022/04/25 00:28:07;;;;;;;14.97;8.20;;;8.00;99.90;;;;;;5010702;28;20436;-35
2022/04/25 00:30:33;;;;;;;15.50;8.97;;;8.00;99.90;;;;;;5026847;28;20051;-34
2022/04/25 00:33:00;;;;;;;17.03;8.63;;;8.00;99.90;;;;;;5025900;28;20088;-34
2022/04/25 00:35:27;;;;;;;14.17;8.07;;;8.00;99.90;;;;;;5027056;28;20041;-35
2022/04/25 00:37:53;;;;;;;13.40;8.23;;;8.00;99.90;;;;;;5010926;28;20512;-35
2022/04/25 00:40:21;;;;;;;14.67;8.43;;;8.10;99.90;;;;;;5027387;28;20395;-35
2022/04/25 00:42:47;;;;;;;12.73;8.20;;;8.00;99.90;;;;;;5025374;28;20045;-35
2022/04/25 00:45:14;;;;;;;16.17;9.03;;;8.00;99.90;;;;;;5026344;28;20038;-35
2022/04/25 00:47:40;;;;;;;14.80;8.43;;;8.00;99.90;;;;;;5009810;28;20171;-35
2022/04/25 00:50:08;;;;;;;13.37;8.37;;;8.00;99.90;;;;;;5041696;28;20050;-35
2022/04/25 00:52:34;;;;;;;16.73;8.23;;;8.10;99.90;;;;;;5026487;28;20052;-35
2022/04/25 00:55:03;;;;;;;17.60;8.13;;;8.00;99.90;;;;;;5026786;28;20033;-35
2022/04/25 00:57:31;;;;;;;15.80;8.37;;;8.00;99.90;;;;;;5007300;28;20198;-35
2022/04/25 00:59:58;;;;;;;13.10;8.37;;;8.00;99.90;;;;;;5041426;28;20053;-35
2022/04/25 01:02:27;;;;;;;19.17;8.50;;;8.00;99.90;;;;;;5025597;28;20084;-34
2022/04/25 01:04:59;;;;;;;15.50;8.97;;;8.00;99.90;;;;;;5026486;28;20136;-35
2022/04/25 01:07:25;;;;;;;14.77;8.48;;;8.00;99.90;;;;;;5010078;28;20625;-35
2022/04/25 01:09:51;;;;;;;16.40;8.87;;;8.00;99.90;;;;;;5025895;28;20661;-35
2022/04/25 01:12:16;;;;;;;18.87;9.57;;;8.00;99.90;;;;;;5039636;28;20084;-35
2022/04/25 01:14:42;;;;;;;16.57;9.00;;;8.00;99.90;;;;;;5025557;28;20076;-35
2022/04/25 01:17:08;;;;;;;19.50;9.70;;;8.00;99.90;;;;;;5009743;28;20744;-35
2022/04/25 01:19:34;;;;;;;14.27;8.80;;;8.00;99.90;;;;;;5026525;28;20492;-35
2022/04/25 01:22:04;;;;;;;13.87;8.43;;;8.00;99.90;;;;;;5041153;28;20049;-35
2022/04/25 01:27:18;;;;;;;17.70;9.23;;;8.00;99.90;;;;;;5028024;28;20124;-35
2022/04/25 01:29:49;;;;;;;11.93;8.23;;;8.00;99.90;;;;;;5046337;28;20099;-35
2022/04/25 01:32:16;;;;;;;13.70;6.95;;;8.00;99.90;;;;;;5062705;28;20264;-35
2022/04/25 01:34:42;;;;;;;14.83;8.67;;;8.00;99.90;;;;;;5048210;28;20044;-35
2022/04/25 01:37:10;;;;;;;15.20;8.47;;;7.90;99.90;;;;;;5031711;28;20424;-35
2022/04/25 01:39:38;;;;;;;13.00;8.53;;;8.00;99.90;;;;;;5044965;28;20040;-35
2022/04/25 01:42:05;;;;;;;11.43;7.97;;;8.00;99.90;;;;;;5044569;28;20060;-38
2022/04/25 01:44:31;;;;;;;15.37;8.47;;;8.00;99.90;;;;;;5044911;28;20085;-35
2022/04/25 01:46:57;;;;;;;15.17;8.93;;;8.00;99.90;;;;;;5030349;28;20080;-35
2022/04/25 01:49:23;;;;;;;16.23;9.13;;;8.00;99.90;;;;;;5042606;28;20408;-35
2022/04/25 01:51:49;;;;;;;13.57;8.27;;;8.00;99.90;;;;;;5045210;28;20045;-35
2022/04/25 01:54:20;;;;;;;17.93;9.07;;;8.00;99.90;;;;;;5044436;28;20470;-35
2022/04/25 01:56:45;;;;;;;15.63;8.93;;;8.00;99.90;;;;;;5030126;28;20624;-35
2022/04/25 01:59:11;;;;;;;18.30;9.10;;;8.00;99.90;;;;;;5044027;28;20045;-35
2022/04/25 02:01:37;;;;;;;16.63;9.23;;;8.00;99.90;;;;;;5048085;28;20037;-35
2022/04/25 02:04:02;;;;;;;15.17;8.83;;;8.00;99.90;;;;;;5043697;28;20315;-35
2022/04/25 02:06:29;;;;;;;14.30;9.30;;;8.00;99.90;;;;;;5032729;28;20484;-35
2022/04/25 02:08:55;;;;;;;19.30;9.77;;;8.10;99.90;;;;;;5039374;28;20049;-35
2022/04/25 02:11:22;;;;;;;15.93;9.40;;;8.00;99.90;;;;;;5044864;28;20071;-35
2022/04/25 02:13:52;;;;;;;14.10;8.80;;;8.00;99.90;;;;;;5043920;28;20058;-35
2022/04/25 02:16:19;;;;;;;17.60;9.37;;;8.00;99.90;;;;;;5034690;28;20337;-35
2022/04/25 02:18:45;;;;;;;15.57;9.20;;;8.00;99.90;;;;;;5038825;28;20037;-35
2022/04/25 02:21:11;;;;;;;14.57;8.60;;;8.10;99.90;;;;;;5044854;28;20519;-35
2022/04/25 02:23:38;;;;;;;18.93;9.87;;;8.00;99.90;;;;;;5043583;28;20055;-35
2022/04/25 02:26:05;;;;;;;18.43;8.93;;;8.00;99.90;;;;;;5028114;28;20056;-35
2022/04/25 02:28:31;;;;;;;14.63;8.90;;;8.00;99.90;;;;;;5028557;28;20069;-35
2022/04/25 02:30:58;;;;;;;17.03;8.97;;;8.20;99.90;;;;;;5059583;28;20383;-35
2022/04/25 02:33:24;;;;;;;12.53;7.90;;;7.90;99.90;;;;;;5043862;28;20037;-35
2022/04/25 02:35:50;;;;;;;13.53;8.63;;;8.00;99.90;;;;;;5042735;28;20049;-35
2022/04/25 02:38:16;;;;;;;16.27;8.43;;;8.00;99.90;;;;;;5029115;28;20066;-35
2022/04/25 02:40:41;;;;;;;16.17;8.33;;;8.10;99.90;;;;;;5043850;28;20053;-34
2022/04/25 02:43:07;;;;;;;14.53;7.70;;;8.10;99.90;;;;;;5043564;28;20115;-35
2022/04/25 02:45:34;;;;;;;16.00;8.90;;;8.00;99.90;;;;;;5064233;28;20048;-35
2022/04/25 02:48:00;;;;;;;15.73;7.90;;;8.20;99.90;;;;;;5028121;28;20045;-35
2022/04/25 02:50:25;;;;;;;15.33;8.10;;;8.00;99.90;;;;;;5043738;28;20071;-35
2022/04/25 02:52:53;;;;;;;13.50;7.60;;;8.10;99.90;;;;;;5043559;28;20128;-35
2022/04/25 02:55:20;;;;;;;13.77;7.77;;;8.00;99.90;;;;;;5044079;28;20051;-35
2022/04/25 02:57:45;;;;;;;12.50;7.83;;;8.10;99.90;;;;;;5027846;28;20434;-35
2022/04/25 03:00:12;;;;;;;12.27;6.87;;;8.10;99.90;;;;;;5044168;28;20138;-35
2022/04/25 03:02:38;;;;;;;12.17;7.33;;;8.10;99.90;;;;;;5042979;28;20123;-35
2022/04/25 03:05:04;;;;;;;16.33;7.87;;;8.10;99.90;;;;;;5043679;28;20183;-35
2022/04/25 03:07:30;;;;;;;13.23;7.30;;;8.10;99.90;;;;;;5023892;28;20076;-35
2022/04/25 03:09:56;;;;;;;16.80;7.93;;;8.20;99.90;;;;;;5043766;28;20150;-34
2022/04/25 03:12:23;;;;;;;12.90;7.07;;;8.10;99.90;;;;;;5043218;28;20037;-35
2022/04/25 03:14:49;;;;;;;11.63;6.80;;;8.10;99.90;;;;;;5043537;28;20037;-35
2022/04/25 03:17:14;;;;;;;13.53;7.43;;;8.30;99.90;;;;;;5012953;28;20086;-35
2022/04/25 03:19:40;;;;;;;15.37;7.00;;;8.10;99.90;;;;;;5044874;28;20041;-34
2022/04/25 03:22:06;;;;;;;13.20;7.20;;;8.00;99.90;;;;;;5043382;28;20041;-35
2022/04/25 03:24:32;;;;;;;11.37;6.80;;;8.00;99.90;;;;;;5043057;28;20052;-35
2022/04/25 03:26:58;;;;;;;8.30;6.60;;;8.10;99.90;;;;;;5026332;28;20048;-35
2022/04/25 03:29:24;;;;;;;15.00;7.07;;;8.10;99.90;;;;;;5043716;28;20476;-35
2022/04/25 03:31:49;;;;;;;11.70;7.53;;;8.10;99.90;;;;;;5043235;28;20176;-35
2022/04/25 03:34:15;;;;;;;14.73;7.57;;;8.10;99.90;;;;;;5042956;28;20045;-35
2022/04/25 03:36:51;;;;;;;12.97;7.20;;;8.20;99.90;;;;;;5029739;28;20082;-35
2022/04/25 03:39:17;;;;;;;12.10;7.50;;;8.10;99.90;;;;;;5041207;28;20056;-35
2022/04/25 03:41:43;;;;;;;14.77;7.60;;;8.10;99.90;;;;;;5043320;28;20064;-35
2022/04/25 03:44:09;;;;;;;16.53;7.77;;;8.00;99.90;;;;;;5043053;28;20553;-35
2022/04/25 03:46:35;;;;;;;13.47;7.77;;;8.10;99.90;;;;;;5029693;28;20048;-35
2022/04/25 03:49:00;;;;;;;16.33;7.77;;;8.00;99.90;;;;;;5042201;28;20045;-35
2022/04/25 03:51:28;;;;;;;12.20;7.47;;;8.10;99.90;;;;;;5059698;28;20122;-35
2022/04/25 03:53:54;;;;;;;18.50;8.30;;;8.10;99.90;;;;;;5041460;28;20155;-35
2022/04/25 03:59:05;;;;;;;13.60;8.00;;;8.00;99.90;;;;;;5040713;28;20569;-35
2022/04/25 04:01:32;;;;;;;12.27;7.80;;;8.00;99.90;;;;;;5046992;28;20468;-35
2022/04/25 04:04:04;;;;;;;15.50;8.17;;;8.00;99.90;;;;;;5046306;28;20041;-35
2022/04/25 04:06:30;;;;;;;14.37;8.10;;;8.00;99.90;;;;;;5034633;28;20582;-35
2022/04/25 04:08:55;;;;;;;14.50;8.47;;;8.00;99.90;;;;;;5043704;28;20072;-35
2022/04/25 04:11:21;;;;;;;15.57;8.20;;;8.00;99.90;;;;;;5046691;28;20503;-35
2022/04/25 04:13:47;;;;;;;12.67;8.00;;;8.00;99.90;;;;;;5048168;28;20573;-35
2022/04/25 04:16:13;;;;;;;13.00;8.17;;;8.00;99.90;;;;;;5037234;28;20132;-35
2022/04/25 04:18:42;;;;;;;13.43;8.27;;;8.00;99.90;;;;;;5039268;28;20186;-35
2022/04/25 04:21:09;;;;;;;15.07;8.40;;;8.00;99.90;;;;;;5045898;28;20411;-35
2022/04/25 04:23:35;;;;;;;17.10;8.90;;;8.00;99.90;;;;;;5046552;28;20531;-35
2022/04/25 04:26:01;;;;;;;14.27;8.33;;;8.00;99.90;;;;;;5059181;28;20107;-35
2022/04/25 04:28:27;;;;;;;12.27;8.20;;;7.90;99.90;;;;;;5028936;28;20049;-34
2022/04/25 04:30:52;;;;;;;11.33;8.47;;;7.90;99.90;;;;;;5046470;28;20045;-35
2022/04/25 04:33:18;;;;;;;17.63;8.57;;;8.00;99.90;;;;;;5045983;28;20049;-35
2022/04/25 04:38:28;;;;;;;13.87;9.23;;;8.00;99.90;;;;;;5031100;28;20052;-35
2022/04/25 04:40:53;;;;;;;16.27;8.97;;;8.00;99.90;;;;;;5046457;28;20400;-35
2022/04/25 04:43:19;;;;;;;16.83;9.37;;;8.00;99.90;;;;;;5045842;28;20532;-35
2022/04/25 04:45:45;;;;;;;16.60;9.20;;;8.00;99.90;;;;;;5046277;28;20130;-35
2022/04/25 04:48:11;;;;;;;18.23;9.10;;;7.90;99.90;;;;;;5029273;28;20048;-35
2022/04/25 04:50:36;;;;;;;16.17;8.53;;;7.90;99.90;;;;;;5046183;28;20059;-35
2022/04/25 04:53:02;;;;;;;14.33;8.80;;;7.90;99.90;;;;;;5046996;28;20527;-35
2022/04/25 04:55:29;;;;;;;16.17;9.30;;;7.90;99.90;;;;;;5046529;28;20060;-35
2022/04/25 04:57:55;;;;;;;13.17;9.33;;;7.90;99.90;;;;;;5029799;28;20080;-35
2022/04/25 05:00:23;;;;;;;16.10;8.77;;;8.00;99.90;;;;;;5047284;28;20052;-35
2022/04/25 05:02:49;;;;;;;14.77;9.60;;;7.90;99.90;;;;;;5044752;28;20127;-34
2022/04/25 05:05:15;;;;;;;17.93;9.17;;;7.90;99.90;;;;;;5046155;28;20049;-34
2022/04/25 05:07:41;;;;;;;17.07;10.27;;;7.90;99.90;;;;;;5029840;28;20077;-35
2022/04/25 05:10:08;;;;;;;17.30;9.30;;;8.00;99.90;;;;;;5046674;28;20045;-35
2022/04/25 05:12:49;;;;;;;17.57;9.77;;;8.00;99.90;;;;;;5043635;28;20381;-35
2022/04/25 05:15:15;;;;;;;10.52;7.25;;;8.00;99.90;;;;;;5043332;28;20499;-35
2022/04/25 05:17:43;;;;;;;18.53;10.13;;;8.00;99.90;;;;;;5028713;28;20538;-35
2022/04/25 05:20:12;;;;;;;14.70;9.67;;;8.00;99.90;;;;;;5045664;28;20124;-35
2022/04/25 05:22:44;;;;;;;14.83;10.03;;;8.00;99.90;;;;;;5045134;28;20055;-34
2022/04/25 05:25:14;;;;;;;16.50;10.30;;;8.00;99.90;;;;;;5044372;28;20439;-35
2022/04/25 05:27:54;;;;;;;16.17;9.70;;;8.00;99.90;;;;;;5028327;28;20106;-35
2022/04/25 05:30:21;;;;;;;14.63;10.67;;;8.10;99.90;;;;;;5044258;28;20045;-35
2022/04/25 05:32:52;;;;;;;12.97;9.00;;;8.10;99.90;;;;;;5042716;28;20072;-35
2022/04/25 05:35:25;;;;;;;14.70;8.60;;;8.20;99.90;;;;;;5043466;28;20045;-35
2022/04/25 05:37:51;;;;;;;18.30;10.37;;;8.20;99.90;;;;;;5026816;28;20052;-35
2022/04/25 05:40:18;;;;;;;15.20;9.90;;;8.20;99.90;;;;;;5046565;28;20044;-35
2022/04/25 05:42:45;;;;;;;15.53;9.93;;;8.10;99.90;;;;;;5043110;28;20504;-35
2022/04/25 05:45:12;;;;;;;18.03;9.83;;;8.10;99.90;;;;;;5044990;28;20041;-35
2022/04/25 05:47:39;;;;;;;17.27;9.50;;;8.10;99.90;;;;;;5028611;28;20040;-35
2022/04/25 05:52:51;;;;;;;19.03;10.20;;;8.10;99.90;;;;;;5043756;28;20108;-34
2022/04/25 05:55:17;;;;;;;15.40;9.73;;;8.10;99.90;;;;;;5045298;28;20048;-35
2022/04/25 05:57:43;;;;;;;16.63;9.80;;;8.20;99.90;;;;;;5027351;28;20057;-35
2022/04/25 06:00:10;;;;;;;17.30;9.60;;;8.20;99.90;;;;;;5045305;28;20139;-35
2022/04/25 06:02:40;;;;;;;12.83;9.40;;;8.20;99.90;;;;;;5043952;28;20045;-35
2022/04/25 06:05:06;;;;;;;15.43;9.27;;;8.20;99.90;;;;;;5044903;28;20063;-35
2022/04/25 06:07:36;;;;;;;14.63;9.50;;;8.20;99.90;;;;;;5028220;28;20057;-35
2022/04/25 06:10:03;;;;;;;16.27;9.07;;;8.20;99.90;;;;;;5045557;28;20090;-35
2022/04/25 06:12:29;;;;;;;19.43;9.40;;;8.20;99.90;;;;;;5042116;28;20036;-35
2022/04/25 06:15:00;;;;;;;15.63;9.30;;;8.20;99.90;;;;;;5045062;28;20105;-35
2022/04/25 06:17:26;;;;;;;12.07;5.95;;;8.20;99.90;;;;;;5028597;28;20106;-35
2022/04/25 06:19:52;;;;;;;19.23;8.33;;;8.20;99.90;;;;;;5044232;28;20040;-35
2022/04/25 06:22:19;;;;;;;13.30;7.40;;;8.30;99.90;;;;;;5042488;28;20044;-35
2022/04/25 06:24:45;;;;;;;13.50;7.70;;;8.30;99.90;;;;;;5042822;28;20060;-35
2022/04/25 06:27:11;;;;;;;12.37;7.23;;;8.30;99.90;;;;;;5024840;28;20073;-35
2022/04/25 06:29:37;;;;;;;15.53;7.90;;;8.40;99.90;;;;;;5041921;28;20484;-35
2022/04/25 06:32:05;;;;;;;13.87;7.40;;;8.30;99.90;;;;;;5041971;28;20128;-35
2022/04/25 06:34:34;;;;;;;14.63;7.73;;;8.30;99.90;;;;;;5040722;28;20072;-35
2022/04/25 06:36:59;;;;;;;11.47;7.30;;;8.30;99.90;;;;;;5026654;28;20060;-35
2022/04/25 06:39:25;;;;;;;15.63;7.57;;;8.30;99.90;;;;;;5042004;28;20044;-35
2022/04/25 06:41:50;;;;;;;12.77;7.80;;;8.30;99.90;;;;;;5042458;28;20041;-35
2022/04/25 06:44:16;;;;;;;15.67;7.27;;;8.30;99.90;;;;;;5041241;28;20052;-35
2022/04/25 06:46:43;;;;;;;17.10;7.57;;;8.30;99.90;;;;;;5029627;28;20041;-35
2022/04/25 06:49:23;;;;;;;11.03;7.00;;;8.30;99.90;;;;;;5038032;28;20076;-35
2022/04/25 06:51:51;;;;;;;12.70;6.90;;;8.30;99.90;;;;;;5040328;28;20142;-35
2022/04/25 06:54:17;;;;;;;15.13;7.00;;;8.30;99.90;;;;;;5040745;28;20124;-35
2022/04/25 06:56:43;;;;;;;14.37;7.10;;;8.30;99.90;;;;;;5027107;28;20501;-35
2022/04/25 06:59:09;;;;;;;14.33;7.10;;;8.40;99.90;;;;;;5041006;28;20052;-35
2022/04/25 07:01:36;;;;;;;10.87;6.83;;;8.40;99.90;;;;;;5044648;28;20047;-35
2022/04/25 07:04:05;;;;;;;15.37;7.87;;;8.40;99.90;;;;;;5034946;28;20051;-35
2022/04/25 07:06:30;;;;;;;15.47;7.87;;;8.40;99.90;;;;;;5024226;28;20973;-35
2022/04/25 07:08:56;;;;;;;17.43;7.70;;;8.40;99.90;;;;;;5016740;28;20056;-35
2022/04/25 07:11:21;;;;;;;14.03;7.33;;;8.50;99.90;;;;;;5020415;28;20052;-35
2022/04/25 07:13:48;;;;;;;13.40;7.93;;;8.60;99.90;;;;;;5019126;28;20060;-35
2022/04/25 07:16:14;;;;;;;13.93;7.40;;;8.60;99.90;;;;;;5011040;28;21584;-35
2022/04/25 07:18:41;;;;;;;17.73;9.00;;;8.60;99.90;;;;;;5011299;28;20044;-35
2022/04/25 07:29:20;;;;;;;16.00;7.40;;;8.70;99.90;;;;;;5017380;28;20492;-35
2022/04/25 07:31:47;;;;;;;10.40;6.63;;;8.70;99.90;;;;;;5017992;28;20319;-35
2022/04/25 07:34:13;;;;;;;17.47;7.67;;;8.80;99.90;;;;;;5019937;28;20091;-35
2022/04/25 07:36:38;;;;;;;15.57;7.53;;;8.80;99.90;;;;;;5008589;28;20052;-36
2022/04/25 07:39:04;;;;;;;12.63;7.53;;;8.80;99.90;;;;;;5021748;28;20700;-35
2022/04/25 07:41:30;;;;;;;16.50;7.30;;;8.90;99.90;;;;;;5029254;28;20284;-35
2022/04/25 07:43:57;;;;;;;12.93;7.00;;;8.90;99.90;;;;;;5022050;28;20366;-35
2022/04/25 07:46:25;;;;;;;11.73;6.53;;;9.10;99.90;;;;;;5010246;28;20049;-36
2022/04/25 07:48:51;;;;;;;11.53;6.40;;;9.00;99.90;;;;;;5017004;28;20060;-35
2022/04/25 07:51:17;;;;;;;12.67;5.60;;;9.10;99.90;;;;;;5026371;28;20061;-35
2022/04/25 07:53:44;;;;;;;13.37;5.70;;;9.10;99.90;;;;;;5022878;28;21364;-35
2022/04/25 07:56:10;;;;;;;10.13;6.00;;;9.10;99.90;;;;;;5016024;28;20053;-36
2022/04/25 07:58:36;;;;;;;11.00;5.63;;;9.20;99.90;;;;;;5012689;28;20136;-35
2022/04/25 08:01:02;;;;;;;10.67;5.50;;;9.20;99.90;;;;;;5025766;28;20057;-35
2022/04/25 08:03:28;;;;;;;11.17;5.33;;;9.20;99.90;;;;;;5023650;28;20049;-35
2022/04/25 08:05:54;;;;;;;9.47;5.23;;;9.20;99.90;;;;;;5023859;28;20056;-35
2022/04/25 08:08:20;;;;;;;11.13;5.27;;;9.30;99.90;;;;;;5003977;28;20131;-35
2022/04/25 08:10:46;;;;;;;10.63;5.50;;;9.30;99.90;;;;;;5027820;28;20079;-35
2022/04/25 08:18:40;;;;;;;7.60;4.87;;;9.40;99.90;;;;;;5014017;28;20075;-35
2022/04/25 08:21:06;;;;;;;12.20;5.93;;;9.40;99.90;;;;;;5022523;28;20496;-35
2022/04/25 08:23:31;;;;;;;9.00;5.10;;;9.50;99.90;;;;;;5025104;28;20083;-36
2022/04/25 08:25:57;;;;;;;9.03;4.77;;;9.50;99.90;;;;;;5025824;28;20466;-35
2022/04/25 08:28:25;;;;;;;10.30;5.67;;;9.50;99.90;;;;;;5011351;28;20051;-35
2022/04/25 08:30:52;;;;;;;10.80;5.47;;;9.50;99.90;;;;;;5026226;28;20053;-35
2022/04/25 08:33:19;;;;;;;8.30;5.10;;;9.60;99.90;;;;;;5004489;28;20076;-35
2022/04/25 08:35:45;;;;;;;8.57;5.20;;;9.60;99.90;;;;;;5024885;28;20146;-35
2022/04/25 08:38:11;;;;;;;11.60;5.57;;;9.70;99.90;;;;;;5008930;28;20053;-35
2022/04/25 08:40:38;;;;;;;9.70;5.07;;;9.80;99.90;;;;;;5023725;28;20048;-35
2022/04/25 08:43:06;;;;;;;12.17;5.17;;;9.70;99.90;;;;;;5023727;28;20057;-35
2022/04/25 08:45:32;;;;;;;12.57;5.37;;;9.70;99.90;;;;;;5020762;28;20048;-35
2022/04/25 08:47:59;;;;;;;10.27;5.30;;;9.70;99.90;;;;;;5004525;28;20041;-35
2022/04/25 08:50:26;;;;;;;12.30;5.23;;;9.70;99.90;;;;;;5021518;28;20102;-35
2022/04/25 08:52:57;;;;;;;10.03;5.90;;;9.70;99.90;;;;;;5018317;28;20033;-35
2022/04/25 08:55:23;;;;;;;9.30;4.53;;;9.70;99.90;;;;;;5036164;28;20060;-35
2022/04/25 08:57:51;;;;;;;12.67;5.30;;;9.90;99.90;;;;;;5006404;28;20301;-35
2022/04/25 09:00:17;;;;;;;8.80;5.30;;;10.00;99.90;;;;;;5020455;28;20056;-35
2022/04/25 09:02:50;;;;;;;9.53;4.97;;;10.00;99.90;;;;;;5021766;28;20122;-35
2022/04/25 09:05:16;;;;;;;10.00;4.77;;;10.00;99.90;;;;;;5021178;28;20048;-35
2022/04/25 09:07:43;;;;;;;9.50;5.10;;;10.20;99.90;;;;;;5005477;28;20056;-35
2022/04/25 09:10:11;;;;;;;8.90;5.20;;;10.30;99.90;;;;;;5021835;28;20506;-35
2022/04/25 09:12:38;;;;;;;10.13;5.20;;;10.30;99.90;;;;;;5018650;28;20152;-35
2022/04/25 09:15:08;;;;;;;10.43;5.25;;;10.40;99.90;;;;;;5004311;28;20049;-35
2022/04/25 09:17:37;;;;;;;8.98;4.97;;;10.50;99.90;;;;;;5003492;28;20692;-35
2022/04/25 09:20:03;;;;;;;8.82;4.80;;;10.60;99.90;;;;;;5019534;28;20045;-35
2022/04/25 09:22:34;;;;;;;11.57;4.60;;;10.60;99.90;;;;;;5020100;28;20080;-35
2022/04/25 09:25:05;;;;;;;13.05;4.97;;;10.70;99.90;;;;;;5021965;28;20409;-35
2022/04/25 09:27:32;;;;;;;9.02;4.60;;;10.70;99.90;;;;;;5004824;28;20053;-35
2022/04/25 09:30:18;;;;;;;11.50;4.20;;;10.70;99.90;;;;;;5024362;28;20118;-35
2022/04/25 09:32:50;;;;;;;6.20;3.63;;;10.80;99.90;;;;;;5020880;28;20057;-35
2022/04/25 09:35:44;;;;;;;7.90;3.63;;;10.80;99.90;;;;;;5022689;28;20059;-36
2022/04/25 09:38:10;;;;;;;8.75;4.00;;;10.80;99.90;;;;;;5006253;28;20049;-35
2022/04/25 09:40:37;;;;;;;8.00;3.58;;;10.90;99.90;;;;;;5020991;28;20048;-35
2022/04/25 09:43:14;;;;;;;6.65;3.90;;;10.90;99.90;;;;;;5018108;28;20147;-35
2022/04/25 09:45:44;;;;;;;7.40;3.80;;;11.00;99.90;;;;;;5020864;28;20048;-35
2022/04/25 09:48:10;;;;;;;6.10;4.10;;;11.10;99.90;;;;;;5002886;28;20652;-35
2022/04/25 09:50:38;;;;;;;8.43;3.80;;;11.10;99.90;;;;;;5020636;28;20059;-36
2022/04/25 09:53:05;;;;;;;9.90;4.18;;;11.10;99.90;;;;;;5024146;28;20137;-35
2022/04/25 09:55:34;;;;;;;6.57;4.03;;;11.20;99.90;;;;;;5022477;28;20041;-35
2022/04/25 09:58:17;;;;;;;8.18;4.15;;;11.20;99.90;;;;;;5001916;28;20048;-36
2022/04/25 10:00:43;;;;;;;11.90;4.30;;;11.40;99.90;;;;;;5022386;28;20079;-35
2022/04/25 10:03:10;;;;;;;7.38;3.67;;;11.40;99.90;;;;;;5019312;28;20252;-35
2022/04/25 10:05:47;;;;;;;9.10;4.22;;;11.50;99.90;;;;;;5021088;28;20053;-35
2022/04/25 10:08:18;;;;;;;9.15;3.75;;;11.50;99.90;;;;;;5004576;28;21593;-36
2022/04/25 10:10:57;;;;;;;8.25;3.58;;;11.60;99.90;;;;;;5019711;28;20057;-36
2022/04/25 10:13:26;;;;;;;6.13;3.60;;;11.60;99.90;;;;;;5018083;28;20049;-36
2022/04/25 10:15:52;;;;;;;7.47;3.95;;;11.70;99.90;;;;;;5020617;28;20057;-36
2022/04/25 10:18:17;;;;;;;6.35;3.65;;;11.70;99.90;;;;;;5002131;28;20415;-35
2022/04/25 10:20:46;;;;;;;6.45;3.67;;;11.80;99.90;;;;;;5019964;28;20045;-36
2022/04/25 10:23:13;;;;;;;5.38;3.38;;;11.90;99.90;;;;;;5019752;28;20045;-36
2022/04/25 10:25:51;;;;;;;4.38;3.22;;;11.90;99.90;;;;;;5020543;28;20064;-35
2022/04/25 10:28:23;;;;;;;7.90;3.40;;;12.00;99.90;;;;;;5005668;28;20565;-36
2022/04/25 10:30:50;;;;;;;7.97;3.50;;;12.10;99.90;;;;;;5019313;28;20447;-36
2022/04/25 10:33:18;;;;;;;5.68;2.90;;;12.20;99.90;;;;;;5033477;28;20488;-36
2022/04/25 10:35:48;;;;;;;4.95;3.67;;;12.30;99.90;;;;;;5016839;28;20088;-36
2022/04/25 10:38:50;;;;;;;5.90;3.40;;;12.40;99.90;;;;;;5003792;28;20051;-35
2022/04/25 10:44:17;;;;;;;5.43;3.20;;;12.50;99.90;;;;;;5016596;28;20143;-36
2022/04/25 10:47:05;;;;;;;3.97;3.33;;;12.50;99.90;;;;;;5002750;28;20412;-36
2022/04/25 10:49:36;;;;;;;8.63;3.97;;;12.50;99.90;;;;;;5016406;28;21074;-36
2022/04/25 10:52:23;;;;;;;9.25;3.92;;;12.50;99.90;;;;;;5018277;28;20369;-36
2022/04/25 10:54:51;;;;;;;6.18;3.67;;;12.50;99.90;;;;;;4992822;28;20539;-36
2022/04/25 10:57:17;;;;;;;5.45;3.42;;;12.60;99.90;;;;;;4981821;28;20444;-35
2022/04/25 10:59:44;;;;;;;9.15;4.13;;;12.50;99.90;;;;;;4995036;28;20960;-36
2022/04/25 11:02:26;;;;;;;10.73;4.13;;;12.50;99.90;;;;;;4993798;28;20072;-36
2022/04/25 11:05:10;;;;;;;7.95;4.10;;;12.40;99.90;;;;;;4998496;28;20143;-36
2022/04/25 11:07:37;;;;;;;9.60;4.70;;;12.40;99.90;;;;;;4978240;28;20132;-36
2022/04/25 11:10:26;;;;;;;6.93;3.85;;;12.40;99.90;;;;;;4996057;28;20053;-36
2022/04/25 11:12:56;;;;;;;9.20;3.60;;;12.40;99.90;;;;;;4994029;28;20504;-36
2022/04/25 11:15:45;;;;;;;9.18;3.50;;;12.40;99.90;;;;;;4997332;28;20076;-36
2022/04/25 11:18:33;;;;;;;8.25;3.92;;;12.30;99.90;;;;;;4977901;28;20049;-36
2022/04/25 11:21:12;;;;;;;9.57;4.05;;;12.30;99.90;;;;;;5000284;28;20648;-36
2022/04/25 11:23:44;;;;;;;6.68;3.42;;;12.20;99.90;;;;;;4992796;28;20077;-36
2022/04/25 11:26:33;;;;;;;9.85;3.75;;;12.20;99.90;;;;;;4993060;28;20111;-37
2022/04/25 11:29:08;;;;;;;7.55;3.70;;;12.20;99.90;;;;;;4990439;28;20086;-37
2022/04/25 11:31:38;;;;;;;8.63;4.03;;;12.20;99.90;;;;;;4996797;28;20041;-36
2022/04/25 11:34:07;;;;;;;7.57;3.85;;;12.20;99.90;;;;;;4997478;28;20042;-36
2022/04/25 11:36:41;;;;;;;10.20;4.00;;;12.20;99.90;;;;;;4985758;28;20049;-37
2022/04/25 11:41:52;;;;;;;9.77;4.30;;;12.20;99.90;;;;;;5000172;28;20099;-37
2022/04/25 11:44:18;;;;;;;7.10;3.80;;;12.30;99.90;;;;;;4994578;28;20558;-37
2022/04/25 11:46:44;;;;;;;10.13;3.80;;;12.30;99.90;;;;;;4986201;28;20056;-36
2022/04/25 11:49:10;;;;;;;7.53;3.83;;;12.20;99.90;;;;;;4996389;28;20042;-36
2022/04/25 11:51:38;;;;;;;8.30;4.10;;;12.30;99.90;;;;;;4999997;28;20045;-36
2022/04/25 11:54:08;;;;;;;10.02;3.80;;;12.30;99.90;;;;;;4997011;28;20233;-36
2022/04/25 11:56:39;;;;;;;6.32;3.63;;;12.20;99.90;;;;;;4983986;28;20134;-36
2022/04/25 11:59:12;;;;;;;7.43;3.92;;;12.20;99.90;;;;;;4995651;28;20092;-36
2022/04/25 12:01:42;;;;;;;7.80;4.30;;;12.20;99.90;;;;;;4998489;28;20658;-36
2022/04/25 12:04:33;;;;;;;8.38;3.97;;;12.20;99.90;;;;;;4991480;28;21002;-36
2022/04/25 12:07:10;;;;;;;14.40;4.70;;;12.20;99.90;;;;;;4980580;28;20585;-36
2022/04/25 12:15:37;;;;;;;7.00;4.00;;;12.10;99.90;;;;;;4998687;28;20088;-36
2022/04/25 12:18:23;;;;;;;8.75;3.83;;;12.10;99.90;;;;;;4980160;28;20789;-36
2022/04/25 12:20:49;;;;;;;9.70;4.30;;;12.10;99.90;;;;;;4998152;28;20094;-36
2022/04/25 12:23:27;;;;;;;9.88;3.88;;;12.00;99.90;;;;;;5000522;28;20374;-36
2022/04/25 12:25:54;;;;;;;8.10;4.18;;;12.10;99.90;;;;;;4999858;28;20067;-36
2022/04/25 12:28:26;;;;;;;7.47;4.05;;;12.10;99.90;;;;;;4983384;28;20442;-36
2022/04/25 12:31:05;;;;;;;9.68;4.38;;;12.00;99.90;;;;;;4998398;28;20144;-36
2022/04/25 12:33:40;;;;;;;7.60;4.30;;;12.10;99.90;;;;;;4995696;28;20050;-36
2022/04/25 12:36:21;;;;;;;8.05;4.47;;;12.10;99.90;;;;;;5001903;28;20060;-36
2022/04/25 12:38:56;;;;;;;5.90;2.90;;;12.10;99.90;;;;;;4996038;28;20052;-36
2022/04/25 12:41:32;;;;;;;6.63;3.78;;;12.00;99.90;;;;;;4999760;28;20045;-36
2022/04/25 12:44:00;;;;;;;7.35;3.80;;;12.10;99.90;;;;;;5000044;28;20535;-36
2022/04/25 12:46:42;;;;;;;10.38;3.85;;;12.00;99.90;;;;;;4986226;28;20646;-36
2022/04/25 12:49:15;;;;;;;7.55;4.18;;;12.10;99.90;;;;;;4997466;28;20103;-36
2022/04/25 12:51:45;;;;;;;10.15;4.60;;;12.10;99.90;;;;;;5001022;28;20676;-36
2022/04/25 12:54:31;;;;;;;7.53;4.50;;;12.10;99.90;;;;;;5001579;28;20422;-36
2022/04/25 12:57:20;;;;;;;6.28;4.07;;;12.10;99.90;;;;;;4984913;28;20538;-36
2022/04/25 12:59:52;;;;;;;8.88;4.35;;;12.20;99.90;;;;;;5001341;28;20098;-36
2022/04/25 13:02:20;;;;;;;;;;;12.30;99.90;;;;;;5002980;28;20048;-36
2022/04/25 13:04:52;;;;;;;8.90;4.40;;;12.30;99.90;;;;;;5003353;28;20040;-36
2022/04/25 13:07:42;;;;;;;8.23;4.35;;;12.40;99.90;;;;;;4989700;28;20099;-36
2022/04/25 13:10:10;;;;;;;8.30;4.35;;;12.50;99.90;;;;;;5002737;28;20046;-36
2022/04/25 13:12:39;;;;;;;8.45;4.10;;;12.50;99.90;;;;;;4999502;28;20053;-36
2022/04/25 13:15:07;;;;;;;10.00;4.72;;;12.60;99.90;;;;;;4999836;28;20516;-36
2022/04/25 13:17:33;;;;;;;7.70;4.45;;;12.60;99.90;;;;;;4984012;28;20482;-36
2022/04/25 13:19:59;;;;;;;5.78;3.80;;;12.70;99.90;;;;;;5000710;28;20435;-36
2022/04/25 13:22:26;;;;;;;9.43;4.25;;;12.70;99.90;;;;;;5000615;28;20049;-36
2022/04/25 13:24:51;;;;;;;7.25;4.43;;;12.90;99.90;;;;;;5001437;28;20178;-36
2022/04/25 13:27:17;;;;;;;10.63;4.13;;;13.10;99.90;;;;;;4984743;28;20175;-37
2022/04/25 13:29:44;;;;;;;6.78;4.60;;;13.20;99.90;;;;;;5001723;28;20172;-36